createdAt,value
2019-05-25T00:02:20.216Z,3.77
2019-05-25T00:04:49.856Z,3.67
2019-05-25T00:07:18.777Z,3.87
2019-05-25T00:09:48.679Z,3.80
2019-05-25T00:12:20.504Z,4.47
2019-05-25T00:14:52.630Z,4.20
2019-05-25T00:17:23.127Z,3.90
2019-05-25T00:19:52.927Z,3.87
2019-05-25T00:22:22.427Z,4.00
2019-05-25T00:24:53.886Z,3.60
2019-05-25T00:27:26.238Z,3.67
2019-05-25T00:29:58.322Z,3.57
2019-05-25T00:32:29.787Z,3.30
2019-05-25T00:35:03.582Z,3.60
2019-05-25T00:37:34.618Z,3.43
2019-05-25T00:40:04.437Z,3.50
2019-05-25T00:42:35.420Z,3.40
2019-05-25T00:45:07.581Z,3.37
2019-05-25T00:47:38.495Z,3.87
2019-05-25T00:50:11.170Z,3.60
2019-05-25T00:52:43.236Z,3.47
2019-05-25T00:55:14.928Z,3.43
2019-05-25T00:57:49.113Z,3.63
2019-05-25T01:00:20.746Z,3.93
2019-05-25T01:02:53.361Z,3.70
2019-05-25T01:05:26.665Z,3.87
2019-05-25T01:07:59.156Z,4.00
2019-05-25T01:10:30.654Z,4.40
2019-05-25T01:13:05.363Z,4.73
2019-05-25T01:15:36.360Z,5.10
2019-05-25T01:18:10.271Z,6.63
2019-05-25T01:20:39.960Z,5.67
2019-05-25T01:23:09.582Z,5.10
2019-05-25T01:25:39.167Z,5.57
2019-05-25T01:28:14.893Z,5.00
2019-05-25T01:30:46.606Z,4.53
2019-05-25T01:33:18.127Z,4.57
2019-05-25T01:35:48.608Z,4.37
2019-05-25T01:38:18.490Z,4.43
2019-05-25T01:40:48.285Z,4.50
2019-05-25T01:43:21.290Z,5.37
2019-05-25T01:45:53.319Z,5.47
2019-05-25T01:48:22.998Z,5.30
2019-05-25T01:50:53.676Z,5.50
2019-05-25T01:53:24.081Z,5.60
2019-05-25T01:55:55.147Z,5.40
2019-05-25T01:58:26.205Z,6.27
2019-05-25T02:00:58.194Z,6.00
2019-05-25T02:03:31.275Z,6.00
2019-05-25T02:06:04.584Z,5.90
2019-05-25T02:08:35.832Z,6.17
2019-05-25T02:11:12.873Z,5.60
2019-05-25T02:13:50.567Z,5.60
2019-05-25T02:16:20.651Z,5.73
2019-05-25T02:18:52.079Z,4.90
2019-05-25T02:21:35.113Z,5.10
2019-05-25T02:24:12.920Z,4.80
2019-05-25T02:26:44.619Z,4.57
2019-05-25T02:29:14.365Z,5.20
2019-05-25T02:31:51.891Z,5.03
2019-05-25T02:34:22.023Z,5.20
2019-05-25T02:36:51.578Z,4.87
2019-05-25T02:39:25.739Z,5.17
2019-05-25T02:41:58.531Z,5.27
2019-05-25T02:44:28.599Z,4.77
2019-05-25T02:46:59.308Z,4.60
2019-05-25T02:49:29.814Z,5.07
2019-05-25T02:52:04.335Z,5.17
2019-05-25T02:54:35.505Z,5.00
2019-05-25T02:57:05.780Z,4.70
2019-05-25T02:59:36.356Z,4.70
2019-05-25T03:02:10.431Z,4.33
2019-05-25T03:04:39.916Z,5.17
2019-05-25T03:07:10.651Z,4.60
2019-05-25T03:09:42.891Z,3.93
2019-05-25T03:12:14.508Z,4.70
2019-05-25T03:14:45.233Z,4.37
2019-05-25T03:17:14.685Z,4.50
2019-05-25T03:19:46.023Z,4.23
2019-05-25T03:22:16.316Z,4.27
2019-05-25T03:27:43.387Z,3.97
2019-05-25T03:30:19.627Z,4.27
2019-05-25T03:33:01.108Z,3.90
2019-05-25T03:35:31.561Z,4.60
2019-05-25T03:38:02.790Z,4.47
2019-05-25T03:40:32.380Z,4.33
2019-05-25T03:43:02.177Z,4.17
2019-05-25T03:45:31.630Z,4.17
2019-05-25T03:48:03.936Z,5.07
2019-05-25T03:50:35.526Z,3.80
2019-05-25T03:53:10.536Z,4.67
2019-05-25T03:56:07.254Z,4.50
2019-05-25T03:58:36.841Z,4.83
2019-05-25T04:01:09.459Z,4.63
2019-05-25T04:03:41.285Z,4.50
2019-05-25T04:06:12.096Z,4.73
2019-05-25T04:08:49.513Z,4.50
2019-05-25T04:11:20.661Z,3.97
2019-05-25T04:13:50.223Z,4.67
2019-05-25T04:16:20.337Z,4.43
2019-05-25T04:18:49.912Z,4.07
2019-05-25T04:21:19.734Z,4.63
2019-05-25T04:23:50.206Z,4.80
2019-05-25T04:26:22.885Z,4.37
2019-05-25T04:28:50.834Z,4.80
2019-05-25T04:31:20.318Z,4.07
2019-05-25T04:33:49.799Z,3.63
2019-05-25T04:36:19.280Z,4.30
2019-05-25T04:38:48.736Z,4.30
2019-05-25T04:41:18.208Z,4.20
2019-05-25T04:43:47.711Z,3.80
2019-05-25T04:46:17.167Z,3.57
2019-05-25T04:48:46.617Z,3.73
2019-05-25T04:51:16.632Z,3.20
2019-05-25T04:53:46.113Z,3.27
2019-05-25T04:56:15.577Z,3.33
2019-05-25T04:58:45.061Z,3.00
2019-05-25T05:01:14.546Z,3.03
2019-05-25T05:03:44.064Z,3.60
2019-05-25T05:06:13.527Z,3.53
2019-05-25T05:08:43.142Z,3.50
2019-05-25T05:11:11.990Z,3.57
2019-05-25T05:13:41.477Z,3.50
2019-05-25T05:16:10.976Z,3.77
2019-05-25T05:18:40.464Z,3.30
2019-05-25T05:21:10.055Z,3.33
2019-05-25T05:23:39.566Z,3.40
2019-05-25T05:26:09.033Z,3.17
2019-05-25T05:28:38.523Z,3.23
2019-05-25T05:31:22.635Z,3.10
2019-05-25T05:33:39.179Z,3.60
2019-05-25T05:36:09.552Z,3.43
2019-05-25T05:38:39.138Z,3.00
2019-05-25T05:41:09.287Z,3.07
2019-05-25T05:43:39.891Z,3.00
2019-05-25T05:46:11.643Z,3.30
2019-05-25T05:48:43.621Z,3.13
2019-05-25T05:51:16.014Z,3.60
2019-05-25T05:53:47.079Z,3.70
2019-05-25T05:56:15.952Z,3.47
2019-05-25T05:58:45.423Z,3.30
2019-05-25T06:01:14.928Z,4.07
2019-05-25T06:03:44.398Z,3.13
2019-05-25T06:06:13.879Z,4.00
2019-05-25T06:08:43.443Z,3.20
2019-05-25T06:11:12.939Z,3.30
2019-05-25T06:13:42.417Z,3.27
2019-05-25T06:16:11.906Z,3.50
2019-05-25T06:18:41.390Z,3.63
2019-05-25T06:21:10.909Z,3.43
2019-05-25T06:23:40.538Z,3.10
2019-05-25T06:26:10.048Z,3.43
2019-05-25T06:28:38.917Z,3.93
2019-05-25T06:31:07.822Z,3.20
2019-05-25T06:33:37.290Z,3.10
2019-05-25T06:36:06.771Z,3.20
2019-05-25T06:38:36.239Z,3.13
2019-05-25T06:41:08.600Z,3.27
2019-05-25T06:43:36.896Z,3.50
2019-05-25T06:46:06.396Z,3.07
2019-05-25T06:48:35.903Z,3.60
2019-05-25T06:51:05.487Z,3.60
2019-05-25T06:53:34.934Z,3.63
2019-05-25T06:56:04.526Z,3.53
2019-05-25T06:58:34.029Z,3.63
2019-05-25T07:01:03.503Z,3.37
2019-05-25T07:03:33.292Z,3.80
2019-05-25T07:06:02.759Z,4.67
2019-05-25T07:08:32.256Z,4.13
2019-05-25T07:11:01.733Z,4.73
2019-05-25T07:13:31.198Z,4.67
2019-05-25T07:16:00.712Z,4.13
2019-05-25T07:18:30.210Z,4.43
2019-05-25T07:20:59.673Z,4.10
2019-05-25T07:23:29.156Z,4.37
2019-05-25T07:25:58.650Z,4.67
2019-05-25T07:28:28.216Z,4.80
2019-05-25T07:30:57.721Z,4.90
2019-05-25T07:33:27.257Z,4.70
2019-05-25T07:35:56.754Z,4.40
2019-05-25T07:38:45.997Z,4.70
2019-05-25T07:41:16.049Z,4.73
2019-05-25T07:43:45.512Z,5.23
2019-05-25T07:46:17.067Z,5.00
2019-05-25T07:48:46.109Z,4.40
2019-05-25T07:51:15.732Z,4.03
2019-05-25T07:53:45.168Z,4.73
2019-05-25T07:56:14.626Z,5.10
2019-05-25T07:58:44.093Z,5.07
2019-05-25T08:01:13.573Z,5.13
2019-05-25T08:03:43.151Z,4.60
2019-05-25T08:06:12.650Z,4.40
2019-05-25T08:08:43.039Z,4.57
2019-05-25T08:11:12.514Z,4.83
2019-05-25T08:13:42.001Z,4.33
2019-05-25T08:16:11.458Z,4.33
2019-05-25T08:18:40.978Z,3.93
2019-05-25T08:21:11.024Z,3.87
2019-05-25T08:23:40.516Z,3.80
2019-05-25T08:26:10.011Z,3.33
2019-05-25T08:28:39.498Z,3.40
2019-05-25T08:31:08.999Z,3.00
2019-05-25T08:33:38.537Z,2.90
2019-05-25T08:36:08.016Z,3.10
2019-05-25T08:38:37.494Z,2.70
2019-05-25T08:41:06.994Z,3.20
2019-05-25T08:43:36.520Z,2.60
2019-05-25T08:46:06.012Z,2.90
2019-05-25T08:48:35.511Z,2.90
2019-05-25T08:51:05.164Z,2.67
2019-05-25T08:53:41.182Z,3.10
2019-05-25T08:56:05.809Z,2.77
2019-05-25T08:58:47.514Z,2.37
2019-05-25T09:01:14.573Z,2.33
2019-05-25T09:03:44.047Z,2.70
2019-05-25T09:06:13.538Z,2.80
2019-05-25T09:08:43.015Z,2.50
2019-05-25T09:11:12.511Z,2.90
2019-05-25T09:13:42.073Z,3.13
2019-05-25T09:16:11.580Z,2.93
2019-05-25T09:18:41.057Z,2.90
2019-05-25T09:21:10.568Z,3.07
2019-05-25T09:23:40.132Z,3.17
2019-05-25T09:26:13.163Z,3.37
2019-05-25T09:28:40.793Z,3.20
2019-05-25T09:31:10.275Z,3.50
2019-05-25T09:33:39.802Z,3.90
2019-05-25T09:36:09.323Z,3.47
2019-05-25T09:38:46.098Z,3.60
2019-05-25T09:41:15.608Z,3.13
2019-05-25T09:43:45.115Z,3.53
2019-05-25T09:46:14.645Z,3.33
2019-05-25T09:48:44.231Z,3.10
2019-05-25T09:51:16.672Z,2.90
2019-05-25T09:53:44.951Z,3.53
2019-05-25T09:56:14.469Z,2.80
2019-05-25T09:58:43.980Z,3.47
2019-05-25T10:01:13.487Z,2.90
2019-05-25T10:03:43.056Z,3.13
2019-05-25T10:06:13.364Z,3.60
2019-05-25T10:08:43.215Z,3.10
2019-05-25T10:11:12.667Z,3.43
2019-05-25T10:13:42.123Z,3.20
2019-05-25T10:16:11.722Z,3.13
2019-05-25T10:18:41.177Z,3.50
2019-05-25T10:21:10.629Z,3.33
2019-05-25T10:23:40.131Z,3.20
2019-05-25T10:26:09.601Z,3.83
2019-05-25T10:28:39.067Z,3.53
2019-05-25T10:31:08.544Z,2.87
2019-05-25T10:33:38.044Z,3.30
2019-05-25T10:36:07.525Z,3.00
2019-05-25T10:38:38.878Z,3.10
2019-05-25T10:41:08.385Z,3.50
2019-05-25T10:43:37.974Z,3.40
2019-05-25T10:46:07.541Z,3.50
2019-05-25T10:48:37.034Z,3.30
2019-05-25T10:51:06.536Z,3.30
2019-05-25T10:53:36.028Z,3.20
2019-05-25T10:56:05.623Z,2.80
2019-05-25T10:58:35.107Z,3.00
2019-05-25T11:01:04.604Z,2.90
2019-05-25T11:03:34.703Z,2.90
2019-05-25T11:06:05.025Z,2.73
2019-05-25T11:08:34.659Z,2.97
2019-05-25T11:11:04.277Z,3.17
2019-05-25T11:13:33.802Z,2.80
2019-05-25T11:16:03.297Z,2.87
2019-05-25T11:18:42.995Z,2.60
2019-05-25T11:21:12.823Z,3.00
2019-05-25T11:23:42.329Z,2.67
2019-05-25T11:26:12.364Z,3.13
2019-05-25T11:28:41.957Z,3.20
2019-05-25T11:31:11.449Z,2.87
2019-05-25T11:33:40.909Z,3.10
2019-05-25T11:36:15.929Z,3.00
2019-05-25T11:38:45.468Z,2.90
2019-05-25T11:41:27.328Z,2.80
2019-05-25T11:44:01.762Z,3.53
2019-05-25T11:46:30.637Z,3.03
2019-05-25T11:49:00.136Z,3.57
2019-05-25T11:51:29.633Z,3.20
2019-05-25T11:53:59.119Z,3.50
2019-05-25T11:56:28.585Z,3.00
2019-05-25T11:58:58.046Z,3.80
2019-05-25T12:01:27.561Z,3.03
2019-05-25T12:03:57.019Z,3.53
2019-05-25T12:06:26.505Z,3.05
2019-05-25T12:08:55.980Z,3.13
2019-05-25T12:11:25.453Z,2.80
2019-05-25T12:13:54.934Z,2.70
2019-05-25T12:16:24.411Z,2.77
2019-05-25T12:18:56.733Z,2.50
2019-05-25T12:21:27.256Z,2.37
2019-05-25T12:23:56.787Z,2.50
2019-05-25T12:26:26.322Z,2.07
2019-05-25T12:28:55.815Z,1.90
2019-05-25T12:31:25.297Z,1.90
2019-05-25T12:33:54.772Z,1.70
2019-05-25T12:36:24.245Z,1.87
2019-05-25T12:38:53.750Z,1.90
2019-05-25T12:41:23.253Z,1.90
2019-05-25T12:43:52.725Z,1.40
2019-05-25T12:46:24.529Z,1.75
2019-05-25T12:48:54.020Z,1.40
2019-05-25T12:51:23.543Z,1.50
2019-05-25T12:53:53.029Z,1.50
2019-05-25T12:56:22.549Z,1.55
2019-05-25T12:58:52.055Z,1.57
2019-05-25T13:01:20.919Z,1.37
2019-05-25T13:03:50.396Z,1.52
2019-05-25T13:06:19.896Z,1.50
2019-05-25T13:08:49.410Z,1.40
2019-05-25T13:11:18.989Z,1.17
2019-05-25T13:13:48.454Z,1.42
2019-05-25T13:16:18.091Z,1.27
2019-05-25T13:18:47.646Z,1.27
2019-05-25T13:21:17.174Z,0.95
2019-05-25T13:23:46.669Z,1.20
2019-05-25T13:26:16.558Z,1.60
2019-05-25T13:28:46.039Z,1.77
2019-05-25T13:31:18.558Z,1.35
2019-05-25T13:33:48.085Z,1.57
2019-05-25T13:36:17.782Z,1.62
2019-05-25T13:38:47.358Z,2.37
2019-05-25T13:41:16.866Z,2.20
2019-05-25T13:43:46.386Z,2.35
2019-05-25T13:46:15.893Z,2.35
2019-05-25T13:48:45.386Z,2.60
2019-05-25T13:51:14.879Z,2.60
2019-05-25T13:53:44.363Z,2.60
2019-05-25T13:56:14.619Z,2.50
2019-05-25T13:58:44.093Z,1.90
2019-05-25T14:01:27.464Z,2.00
2019-05-25T14:03:44.763Z,1.90
2019-05-25T14:06:14.558Z,1.87
2019-05-25T14:08:44.094Z,1.90
2019-05-25T14:11:13.564Z,2.20
2019-05-25T14:13:43.051Z,2.00
2019-05-25T14:16:12.504Z,2.20
2019-05-25T14:18:42.003Z,2.40
2019-05-25T14:21:11.466Z,2.10
2019-05-25T14:23:40.963Z,2.10
2019-05-25T14:26:10.486Z,1.90
2019-05-25T14:28:39.956Z,2.70
2019-05-25T14:31:09.417Z,2.15
2019-05-25T14:33:38.889Z,2.07
2019-05-25T14:36:08.369Z,2.00
2019-05-25T14:38:37.872Z,1.83
2019-05-25T14:41:07.380Z,2.22
2019-05-25T14:43:36.947Z,2.15
2019-05-25T14:46:06.449Z,1.87
2019-05-25T14:48:35.958Z,2.02
2019-05-25T14:51:05.570Z,1.70
2019-05-25T14:53:35.038Z,2.00
2019-05-25T14:56:04.543Z,1.62
2019-05-25T14:58:34.063Z,1.75
2019-05-25T15:01:03.518Z,1.57
2019-05-25T15:03:32.963Z,1.90
2019-05-25T15:06:02.483Z,1.93
2019-05-25T15:08:31.946Z,1.72
2019-05-25T15:11:01.417Z,1.98
2019-05-25T15:13:30.887Z,1.70
2019-05-25T15:16:00.337Z,1.70
2019-05-25T15:18:29.837Z,1.63
2019-05-25T15:20:59.343Z,2.00
2019-05-25T15:23:28.850Z,1.90
2019-05-25T15:25:58.358Z,1.72
2019-05-25T15:28:27.857Z,2.30
2019-05-25T15:30:57.375Z,1.87
2019-05-25T15:33:26.857Z,2.05
2019-05-25T15:35:56.337Z,2.10
2019-05-25T15:38:25.848Z,1.70
2019-05-25T15:40:55.349Z,1.92
2019-05-25T15:43:24.851Z,2.00
2019-05-25T15:45:54.326Z,2.12
2019-05-25T15:48:26.209Z,1.75
2019-05-25T15:50:54.927Z,1.60
2019-05-25T15:53:24.430Z,1.60
2019-05-25T15:55:54.010Z,2.42
2019-05-25T15:58:25.855Z,1.82
2019-05-25T16:00:55.432Z,1.80
2019-05-25T16:03:24.995Z,2.00
2019-05-25T16:05:54.559Z,1.57
2019-05-25T16:08:24.108Z,1.70
2019-05-25T16:10:53.703Z,1.70
2019-05-25T16:13:23.165Z,1.72
2019-05-25T16:15:54.218Z,1.50
2019-05-25T16:18:25.318Z,1.20
2019-05-25T16:20:54.934Z,1.40
2019-05-25T16:23:24.400Z,1.50
2019-05-25T16:25:53.900Z,1.30
2019-05-25T16:28:23.794Z,1.40
2019-05-25T16:30:53.289Z,1.65
2019-05-25T16:33:22.772Z,1.32
2019-05-25T16:35:52.314Z,1.40
2019-05-25T16:38:21.893Z,1.50
2019-05-25T16:40:51.341Z,1.35
2019-05-25T16:43:20.821Z,1.20
2019-05-25T16:45:50.313Z,1.42
2019-05-25T16:48:19.863Z,1.20
2019-05-25T16:50:49.333Z,1.70
2019-05-25T16:53:18.806Z,1.25
2019-05-25T16:55:48.274Z,1.62
2019-05-25T16:58:17.765Z,1.37
2019-05-25T17:00:47.735Z,1.32
2019-05-25T17:03:27.436Z,1.55
2019-05-25T17:05:48.363Z,1.62
2019-05-25T17:08:17.868Z,1.50
2019-05-25T17:10:47.360Z,1.80
2019-05-25T17:13:16.838Z,1.35
2019-05-25T17:15:46.332Z,1.37
2019-05-25T17:18:15.830Z,1.20
2019-05-25T17:20:45.299Z,1.32
2019-05-25T17:23:14.761Z,1.35
2019-05-25T17:25:44.269Z,1.35
2019-05-25T17:28:13.773Z,2.22
2019-05-25T17:30:45.130Z,5.95
2019-05-25T17:33:15.436Z,1.72
2019-05-25T17:35:45.133Z,6.35
2019-05-25T17:38:14.714Z,1.80
2019-05-25T17:40:44.187Z,1.60
2019-05-25T17:43:13.696Z,1.55
2019-05-25T17:45:43.167Z,1.32
2019-05-25T17:48:12.625Z,2.22
2019-05-25T17:50:42.113Z,1.70
2019-05-25T17:53:11.608Z,1.98
2019-05-25T17:55:41.091Z,1.55
2019-05-25T17:58:10.609Z,1.37
2019-05-25T18:00:42.060Z,1.32
2019-05-25T18:03:11.582Z,1.35
2019-05-25T18:05:41.029Z,1.57
2019-05-25T18:08:10.698Z,1.30
2019-05-25T18:10:52.016Z,1.37
2019-05-25T18:13:11.365Z,1.40
2019-05-25T18:15:41.068Z,1.17
2019-05-25T18:18:10.558Z,1.20
2019-05-25T18:20:40.390Z,1.30
2019-05-25T18:23:09.863Z,1.35
2019-05-25T18:25:39.369Z,1.20
2019-05-25T18:28:08.945Z,0.95
2019-05-25T18:30:38.430Z,0.98
2019-05-25T18:33:07.909Z,1.50
2019-05-25T18:35:37.437Z,1.12
2019-05-25T18:38:09.483Z,1.57
2019-05-25T18:40:39.017Z,1.40
2019-05-25T18:43:11.536Z,1.62
2019-05-25T18:45:42.773Z,1.30
2019-05-25T18:48:15.208Z,1.20
2019-05-25T18:50:48.644Z,1.10
2019-05-25T18:53:21.025Z,1.32
2019-05-25T18:55:52.232Z,1.12
2019-05-25T18:58:24.823Z,1.50
2019-05-25T19:00:54.983Z,1.40
2019-05-25T19:03:25.249Z,1.30
2019-05-25T19:05:58.313Z,1.10
2019-05-25T19:08:27.913Z,1.27
2019-05-25T19:10:57.426Z,1.35
2019-05-25T19:13:27.921Z,1.27
2019-05-25T19:16:00.752Z,1.50
2019-05-25T19:18:30.230Z,1.87
2019-05-25T19:20:59.726Z,1.60
2019-05-25T19:23:29.181Z,1.60
2019-05-25T19:25:58.893Z,1.62
2019-05-25T19:28:28.984Z,1.72
2019-05-25T19:30:58.799Z,1.80
2019-05-25T19:33:29.711Z,2.10
2019-05-25T19:35:59.513Z,2.00
2019-05-25T19:38:31.994Z,2.37
2019-05-25T19:41:05.201Z,1.73
2019-05-25T19:43:34.698Z,1.90
2019-05-25T19:46:05.632Z,1.63
2019-05-25T19:48:37.970Z,1.50
2019-05-25T19:51:10.476Z,1.80
2019-05-25T19:53:41.700Z,1.90
2019-05-25T19:56:12.921Z,1.90
2019-05-25T19:58:44.197Z,1.60
2019-05-25T20:01:13.696Z,1.83
2019-05-25T20:03:43.170Z,1.70
2019-05-25T20:06:13.783Z,1.63
2019-05-25T20:08:46.011Z,1.53
2019-05-25T20:11:17.217Z,1.93
2019-05-25T20:13:46.683Z,2.20
2019-05-25T20:16:16.178Z,2.00
2019-05-25T20:18:48.982Z,1.90
2019-05-25T20:21:21.036Z,1.70
2019-05-25T20:23:53.044Z,1.77
2019-05-25T20:26:22.540Z,2.13
2019-05-25T20:28:53.979Z,1.73
2019-05-25T20:31:26.023Z,1.70
2019-05-25T20:33:56.916Z,2.03
2019-05-25T20:36:27.936Z,2.27
2019-05-25T20:38:58.682Z,2.03
2019-05-25T20:41:29.886Z,2.00
2019-05-25T20:43:59.463Z,2.37
2019-05-25T20:46:28.986Z,2.10
2019-05-25T20:48:58.484Z,2.30
2019-05-25T20:51:30.799Z,2.37
2019-05-25T20:54:01.631Z,2.40
2019-05-25T20:56:33.065Z,2.40
2019-05-25T20:59:02.576Z,2.30
2019-05-25T21:01:32.881Z,2.60
2019-05-25T21:04:02.820Z,2.20
2019-05-25T21:06:36.019Z,2.30
2019-05-25T21:09:08.076Z,2.50
2019-05-25T21:11:39.820Z,2.60
2019-05-25T21:14:12.392Z,2.47
2019-05-25T21:16:42.406Z,2.27
2019-05-25T21:19:12.039Z,2.20
2019-05-25T21:21:41.524Z,2.23
2019-05-25T21:24:11.018Z,2.03
2019-05-25T21:26:40.499Z,2.20
2019-05-25T21:29:12.904Z,2.27
2019-05-25T21:31:44.979Z,2.10
2019-05-25T21:34:16.750Z,1.90
2019-05-25T21:36:48.992Z,2.37
2019-05-25T21:39:18.465Z,2.37
2019-05-25T21:41:48.090Z,2.60
2019-05-25T21:44:38.738Z,2.67
2019-05-25T21:47:08.500Z,2.50
2019-05-25T21:49:38.315Z,3.17
2019-05-25T21:52:08.683Z,2.33
2019-05-25T21:54:39.026Z,2.80
2019-05-25T21:57:08.552Z,2.53
2019-05-25T21:59:40.582Z,2.30
2019-05-25T22:02:11.038Z,2.30
2019-05-25T22:04:40.741Z,2.13
2019-05-25T22:07:10.213Z,2.10
2019-05-25T22:09:39.702Z,2.30
2019-05-25T22:12:11.176Z,2.20
2019-05-25T22:14:40.889Z,2.50
2019-05-25T22:17:12.373Z,2.40
2019-05-25T22:19:41.863Z,2.23
2019-05-25T22:22:12.655Z,2.67
2019-05-25T22:24:43.248Z,2.20
2019-05-25T22:27:13.440Z,2.00
2019-05-25T22:29:44.688Z,2.40
2019-05-25T22:32:14.238Z,2.60
2019-05-25T22:34:45.949Z,2.40
2019-05-25T22:37:15.462Z,2.33
2019-05-25T22:39:44.957Z,2.50
2019-05-25T22:42:14.429Z,2.50
2019-05-25T22:44:45.099Z,2.33
2019-05-25T22:47:15.202Z,2.40
2019-05-25T22:49:44.698Z,2.70
2019-05-25T22:52:16.073Z,2.00
2019-05-25T22:54:45.578Z,2.30
2019-05-25T22:57:16.409Z,2.10
2019-05-25T22:59:47.914Z,1.90
2019-05-25T23:02:17.703Z,2.00
2019-05-25T23:04:47.210Z,2.10
2019-05-25T23:07:16.670Z,2.30
2019-05-25T23:09:48.362Z,2.40
2019-05-25T23:12:17.972Z,2.30
2019-05-25T23:14:47.468Z,2.10
2019-05-25T23:17:17.198Z,2.20
2019-05-25T23:19:46.737Z,2.40
2019-05-25T23:22:18.605Z,2.43
2019-05-25T23:24:48.190Z,2.30
2019-05-25T23:27:18.818Z,2.00
2019-05-25T23:29:49.149Z,2.00
2019-05-25T23:32:18.614Z,2.20
2019-05-25T23:34:48.081Z,1.90
2019-05-25T23:37:17.594Z,2.10
2019-05-25T23:39:47.069Z,2.07
2019-05-25T23:42:16.627Z,2.20
2019-05-25T23:44:46.028Z,2.00
2019-05-25T23:47:15.568Z,2.23
2019-05-25T23:49:45.053Z,2.10
2019-05-25T23:52:14.563Z,1.83
2019-05-25T23:54:44.034Z,2.10
2019-05-25T23:57:13.652Z,2.10
2019-05-25T23:59:43.128Z,2.50
